QAK145 MMGL-MMAA
Flight info
| Callsign | QAK145 |
|---|---|
| Flight time | 0h 59m |
| Altitude | 35000 |
| Route | EMIRI1B EMIRI DCT ZIH J1 AVURO AVURO1B |
| Aircraft | A321/M-SDE3FGHIRWY/LB1 |
Departure
| Time | 2026-05-06 00:25 |
|---|---|
| Airport | Guadalajara International Airport (MMGL) |
Arrival
| Time | 2026-05-06 01:24 |
|---|---|
| Airport | General Juan N. Álvarez International Airport (MMAA) |
| Time | Latitude | Longitude | Altitude | Speed | Heading |
|---|---|---|---|---|---|
| 2026-05-06 00:05 | 20.52220 | -103.29828 | 5029 ft | 0 kts | 199° |
| 2026-05-06 00:15 | 20.52222 | -103.29827 | 5029 ft | 1 kts | 199° |
| 2026-05-06 00:15 | 20.52235 | -103.29822 | 5026 ft | 2 kts | 199° |
| 2026-05-06 00:15 | 20.52252 | -103.29818 | 5025 ft | 3 kts | 164° |
| 2026-05-06 00:16 | 20.52269 | -103.29826 | 5026 ft | 3 kts | 132° |
| 2026-05-06 00:16 | 20.52278 | -103.29839 | 5027 ft | 1 kts | 117° |
| 2026-05-06 00:16 | 20.52278 | -103.29840 | 5028 ft | 0 kts | 117° |
| 2026-05-06 00:20 | 20.52277 | -103.29838 | 5027 ft | 1 kts | 117° |
| 2026-05-06 00:20 | 20.52270 | -103.29823 | 5027 ft | 3 kts | 117° |
| 2026-05-06 00:20 | 20.52255 | -103.29793 | 5029 ft | 6 kts | 117° |
| 2026-05-06 00:20 | 20.52228 | -103.29759 | 5029 ft | 7 kts | 161° |
| 2026-05-06 00:21 | 20.52178 | -103.29771 | 5029 ft | 8 kts | 202° |
| 2026-05-06 00:21 | 20.52116 | -103.29793 | 5029 ft | 11 kts | 198° |
| 2026-05-06 00:21 | 20.52055 | -103.29762 | 5029 ft | 12 kts | 118° |
| 2026-05-06 00:21 | 20.52016 | -103.29676 | 5029 ft | 14 kts | 116° |
| 2026-05-06 00:22 | 20.51980 | -103.29586 | 5030 ft | 14 kts | 114° |
| 2026-05-06 00:22 | 20.51926 | -103.29535 | 5030 ft | 9 kts | 177° |
| 2026-05-06 00:22 | 20.51862 | -103.29563 | 5030 ft | 11 kts | 203° |
| 2026-05-06 00:22 | 20.51827 | -103.29626 | 5030 ft | 11 kts | 278° |
| 2026-05-06 00:23 | 20.51844 | -103.29666 | 5028 ft | 0 kts | 293° |
| 2026-05-06 00:23 | 20.51845 | -103.29669 | 5029 ft | 2 kts | 293° |
| 2026-05-06 00:24 | 20.51902 | -103.29806 | 5029 ft | 52 kts | 294° |
| 2026-05-06 00:24 | 20.52148 | -103.30390 | 5025 ft | 116 kts | 294° |
| 2026-05-06 00:24 | 20.52549 | -103.31331 | 5031 ft | 165 kts | 294° |
| 2026-05-06 00:24 | 20.53051 | -103.32524 | 5524 ft | 178 kts | 294° |
| 2026-05-06 00:25 | 20.53543 | -103.33743 | 6240 ft | 179 kts | 292° |
| 2026-05-06 00:25 | 20.54027 | -103.34967 | 6864 ft | 176 kts | 294° |
| 2026-05-06 00:25 | 20.54494 | -103.36140 | 7350 ft | 173 kts | 293° |
| 2026-05-06 00:25 | 20.54988 | -103.37377 | 7486 ft | 190 kts | 293° |
| 2026-05-06 00:26 | 20.55526 | -103.38723 | 7611 ft | 204 kts | 292° |
| 2026-05-06 00:26 | 20.56079 | -103.40166 | 7732 ft | 216 kts | 287° |
| 2026-05-06 00:26 | 20.56136 | -103.41793 | 7889 ft | 227 kts | 258° |
| 2026-05-06 00:26 | 20.55344 | -103.43247 | 8163 ft | 233 kts | 226° |
| 2026-05-06 00:27 | 20.53886 | -103.44014 | 8414 ft | 241 kts | 192° |
| 2026-05-06 00:27 | 20.52228 | -103.43747 | 8681 ft | 249 kts | 155° |
| 2026-05-06 00:27 | 20.50930 | -103.42534 | 8974 ft | 251 kts | 133° |
| 2026-05-06 00:27 | 20.49782 | -103.41120 | 9273 ft | 252 kts | 132° |
| 2026-05-06 00:28 | 20.48629 | -103.39683 | 9481 ft | 261 kts | 132° |
| 2026-05-06 00:28 | 20.47419 | -103.38179 | 9760 ft | 271 kts | 132° |
| 2026-05-06 00:28 | 20.46180 | -103.36647 | 10235 ft | 274 kts | 132° |
| 2026-05-06 00:28 | 20.44934 | -103.35112 | 10720 ft | 275 kts | 133° |
| 2026-05-06 00:29 | 20.43672 | -103.33557 | 11057 ft | 284 kts | 133° |
| 2026-05-06 00:29 | 20.42336 | -103.31913 | 11174 ft | 302 kts | 132° |
| 2026-05-06 00:29 | 20.40917 | -103.30172 | 11277 ft | 320 kts | 132° |
| 2026-05-06 00:29 | 20.39419 | -103.28340 | 11381 ft | 336 kts | 132° |
| 2026-05-06 00:30 | 20.37850 | -103.26420 | 11480 ft | 351 kts | 132° |
| 2026-05-06 00:30 | 20.36215 | -103.24418 | 11580 ft | 365 kts | 132° |
| 2026-05-06 00:30 | 20.34540 | -103.22364 | 11670 ft | 377 kts | 132° |
| 2026-05-06 00:30 | 20.32771 | -103.20199 | 11913 ft | 385 kts | 132° |
| 2026-05-06 00:31 | 20.31027 | -103.18066 | 12296 ft | 388 kts | 132° |
| 2026-05-06 00:31 | 20.29251 | -103.15892 | 12721 ft | 390 kts | 132° |
| 2026-05-06 00:31 | 20.27467 | -103.13704 | 13151 ft | 392 kts | 131° |
| 2026-05-06 00:31 | 20.25678 | -103.11510 | 13574 ft | 394 kts | 132° |
| 2026-05-06 00:32 | 20.23876 | -103.09304 | 13959 ft | 395 kts | 131° |
| 2026-05-06 00:32 | 20.22064 | -103.07087 | 14374 ft | 396 kts | 132° |
| 2026-05-06 00:32 | 20.20253 | -103.04870 | 14820 ft | 397 kts | 132° |
| 2026-05-06 00:32 | 20.18435 | -103.02649 | 15272 ft | 398 kts | 132° |
| 2026-05-06 00:33 | 20.16612 | -103.00424 | 15704 ft | 399 kts | 132° |
| 2026-05-06 00:33 | 20.14781 | -102.98192 | 16125 ft | 401 kts | 132° |
| 2026-05-06 00:33 | 20.12946 | -102.95956 | 16583 ft | 402 kts | 132° |
| 2026-05-06 00:33 | 20.11105 | -102.93712 | 16999 ft | 403 kts | 132° |
| 2026-05-06 00:34 | 20.09259 | -102.91461 | 17412 ft | 404 kts | 132° |
| 2026-05-06 00:34 | 20.07409 | -102.89207 | 17825 ft | 405 kts | 132° |
| 2026-05-06 00:34 | 20.05555 | -102.86945 | 18207 ft | 407 kts | 132° |
| 2026-05-06 00:34 | 20.03693 | -102.84671 | 18551 ft | 408 kts | 132° |
| 2026-05-06 00:35 | 20.01821 | -102.82386 | 18895 ft | 409 kts | 133° |
| 2026-05-06 00:35 | 19.99974 | -102.80134 | 19214 ft | 411 kts | 133° |
| 2026-05-06 00:35 | 19.98093 | -102.77845 | 19566 ft | 412 kts | 133° |
| 2026-05-06 00:35 | 19.96203 | -102.75552 | 19909 ft | 413 kts | 133° |
| 2026-05-06 00:36 | 19.94307 | -102.73252 | 20242 ft | 414 kts | 133° |
| 2026-05-06 00:36 | 19.92403 | -102.70943 | 20584 ft | 415 kts | 133° |
| 2026-05-06 00:36 | 19.90496 | -102.68630 | 20928 ft | 417 kts | 133° |
| 2026-05-06 00:36 | 19.88583 | -102.66306 | 21257 ft | 418 kts | 133° |
| 2026-05-06 00:37 | 19.86665 | -102.63974 | 21593 ft | 420 kts | 133° |
| 2026-05-06 00:37 | 19.84739 | -102.61634 | 21935 ft | 421 kts | 133° |
| 2026-05-06 00:37 | 19.82804 | -102.59292 | 22254 ft | 422 kts | 133° |
| 2026-05-06 00:37 | 19.80683 | -102.57145 | 22557 ft | 421 kts | 143° |
| 2026-05-06 00:38 | 19.78229 | -102.55436 | 22845 ft | 422 kts | 153° |
| 2026-05-06 00:38 | 19.75579 | -102.54093 | 23113 ft | 423 kts | 155° |
| 2026-05-06 00:38 | 19.72908 | -102.52766 | 23430 ft | 425 kts | 155° |
| 2026-05-06 00:38 | 19.70225 | -102.51424 | 23679 ft | 426 kts | 155° |
| 2026-05-06 00:39 | 19.67543 | -102.50075 | 23909 ft | 428 kts | 155° |
| 2026-05-06 00:39 | 19.64848 | -102.48719 | 24141 ft | 430 kts | 155° |
| 2026-05-06 00:39 | 19.62137 | -102.47354 | 24374 ft | 432 kts | 155° |
| 2026-05-06 00:39 | 19.59415 | -102.45989 | 24614 ft | 434 kts | 155° |
| 2026-05-06 00:40 | 19.56678 | -102.44620 | 24838 ft | 436 kts | 155° |
| 2026-05-06 00:40 | 19.53929 | -102.43248 | 25066 ft | 438 kts | 155° |
| 2026-05-06 00:40 | 19.51169 | -102.41871 | 25301 ft | 440 kts | 155° |
| 2026-05-06 00:40 | 19.48397 | -102.40488 | 25513 ft | 441 kts | 155° |
| 2026-05-06 00:41 | 19.45613 | -102.39100 | 25749 ft | 443 kts | 155° |
| 2026-05-06 00:41 | 19.42853 | -102.37722 | 25990 ft | 445 kts | 155° |
| 2026-05-06 00:41 | 19.40044 | -102.36320 | 26221 ft | 447 kts | 155° |
| 2026-05-06 00:41 | 19.37230 | -102.34917 | 26455 ft | 449 kts | 156° |
| 2026-05-06 00:42 | 19.34398 | -102.33506 | 26687 ft | 450 kts | 156° |
| 2026-05-06 00:42 | 19.31560 | -102.32093 | 26896 ft | 452 kts | 156° |
| 2026-05-06 00:42 | 19.28705 | -102.30669 | 27098 ft | 454 kts | 156° |
| 2026-05-06 00:42 | 19.25848 | -102.29242 | 27289 ft | 455 kts | 156° |
| 2026-05-06 00:43 | 19.22975 | -102.27808 | 27463 ft | 457 kts | 156° |
| 2026-05-06 00:43 | 19.20099 | -102.26375 | 27633 ft | 458 kts | 156° |
| 2026-05-06 00:43 | 19.17208 | -102.24939 | 27797 ft | 460 kts | 156° |
| 2026-05-06 00:43 | 19.14307 | -102.23498 | 27946 ft | 461 kts | 156° |
| 2026-05-06 00:44 | 19.11402 | -102.22056 | 28095 ft | 462 kts | 156° |
| 2026-05-06 00:44 | 19.08494 | -102.20611 | 28312 ft | 461 kts | 156° |
| 2026-05-06 00:44 | 19.05589 | -102.19166 | 28529 ft | 461 kts | 156° |
| 2026-05-06 00:44 | 19.02684 | -102.17723 | 28755 ft | 460 kts | 156° |
| 2026-05-06 00:45 | 18.99818 | -102.16300 | 28981 ft | 460 kts | 156° |
| 2026-05-06 00:45 | 18.96926 | -102.14864 | 29217 ft | 460 kts | 156° |
| 2026-05-06 00:45 | 18.94031 | -102.13428 | 29454 ft | 459 kts | 156° |
| 2026-05-06 00:45 | 18.91137 | -102.11994 | 29698 ft | 459 kts | 156° |
| 2026-05-06 00:46 | 18.88248 | -102.10562 | 29922 ft | 458 kts | 156° |
| 2026-05-06 00:46 | 18.85361 | -102.09131 | 30120 ft | 458 kts | 156° |
| 2026-05-06 00:46 | 18.82474 | -102.07700 | 30312 ft | 458 kts | 156° |
| 2026-05-06 00:46 | 18.79585 | -102.06269 | 30487 ft | 458 kts | 156° |
| 2026-05-06 00:47 | 18.76699 | -102.04842 | 30671 ft | 458 kts | 156° |
| 2026-05-06 00:47 | 18.73808 | -102.03413 | 30877 ft | 458 kts | 156° |
| 2026-05-06 00:47 | 18.70924 | -102.01983 | 31072 ft | 458 kts | 156° |
| 2026-05-06 00:47 | 18.68037 | -102.00550 | 31269 ft | 458 kts | 156° |
| 2026-05-06 00:48 | 18.65151 | -101.99120 | 31461 ft | 458 kts | 156° |
| 2026-05-06 00:48 | 18.62269 | -101.97693 | 31645 ft | 458 kts | 157° |
| 2026-05-06 00:48 | 18.59376 | -101.96263 | 31845 ft | 458 kts | 157° |
| 2026-05-06 00:48 | 18.56528 | -101.94861 | 32034 ft | 458 kts | 157° |
| 2026-05-06 00:49 | 18.53640 | -101.93441 | 32235 ft | 458 kts | 157° |
| 2026-05-06 00:49 | 18.50750 | -101.92020 | 32430 ft | 458 kts | 157° |
| 2026-05-06 00:49 | 18.47857 | -101.90593 | 32615 ft | 458 kts | 157° |
| 2026-05-06 00:49 | 18.44965 | -101.89164 | 32815 ft | 458 kts | 157° |
| 2026-05-06 00:50 | 18.42083 | -101.87742 | 33018 ft | 458 kts | 158° |
| 2026-05-06 00:50 | 18.39190 | -101.86321 | 33200 ft | 459 kts | 158° |
| 2026-05-06 00:50 | 18.36296 | -101.84900 | 33385 ft | 459 kts | 158° |
| 2026-05-06 00:50 | 18.33401 | -101.83471 | 33582 ft | 459 kts | 158° |
| 2026-05-06 00:51 | 18.30506 | -101.82042 | 33764 ft | 460 kts | 158° |
| 2026-05-06 00:51 | 18.27607 | -101.80611 | 33928 ft | 460 kts | 157° |
| 2026-05-06 00:51 | 18.24704 | -101.79183 | 34100 ft | 460 kts | 157° |
| 2026-05-06 00:51 | 18.21799 | -101.77759 | 34272 ft | 460 kts | 157° |
| 2026-05-06 00:52 | 18.18893 | -101.76333 | 34440 ft | 460 kts | 157° |
| 2026-05-06 00:52 | 18.15994 | -101.74910 | 34616 ft | 460 kts | 157° |
| 2026-05-06 00:52 | 18.13094 | -101.73487 | 34796 ft | 460 kts | 157° |
| 2026-05-06 00:53 | 18.07290 | -101.70645 | 34901 ft | 460 kts | 157° |
| 2026-05-06 00:53 | 18.01489 | -101.67799 | 34901 ft | 460 kts | 157° |
| 2026-05-06 00:54 | 17.95686 | -101.64952 | 34903 ft | 460 kts | 157° |
| 2026-05-06 00:54 | 17.89876 | -101.62113 | 34902 ft | 460 kts | 157° |
| 2026-05-06 00:55 | 17.84105 | -101.59291 | 34891 ft | 461 kts | 157° |
| 2026-05-06 00:55 | 17.78293 | -101.56446 | 34889 ft | 461 kts | 157° |
| 2026-05-06 00:56 | 17.72467 | -101.53602 | 34888 ft | 462 kts | 157° |
| 2026-05-06 00:56 | 17.66643 | -101.50758 | 34880 ft | 462 kts | 157° |
| 2026-05-06 00:57 | 17.61269 | -101.47071 | 34882 ft | 466 kts | 138° |
| 2026-05-06 00:57 | 17.57908 | -101.42654 | 34882 ft | 470 kts | 121° |
| 2026-05-06 00:58 | 17.54932 | -101.36541 | 34883 ft | 471 kts | 118° |
| 2026-05-06 00:58 | 17.51960 | -101.30417 | 34893 ft | 472 kts | 118° |
| 2026-05-06 00:59 | 17.48981 | -101.24291 | 34906 ft | 472 kts | 118° |
| 2026-05-06 00:59 | 17.46008 | -101.18156 | 34913 ft | 471 kts | 118° |
| 2026-05-06 01:00 | 17.43031 | -101.12035 | 34924 ft | 471 kts | 118° |
| 2026-05-06 01:00 | 17.41564 | -101.09025 | 34901 ft | 458 kts | 118° |
| 2026-05-06 01:00 | 17.40142 | -101.06104 | 34897 ft | 443 kts | 119° |
| 2026-05-06 01:00 | 17.38762 | -101.03268 | 34722 ft | 434 kts | 119° |
| 2026-05-06 01:01 | 17.37414 | -101.00496 | 34195 ft | 430 kts | 119° |
| 2026-05-06 01:01 | 17.36048 | -100.97694 | 33542 ft | 434 kts | 119° |
| 2026-05-06 01:01 | 17.34671 | -100.94877 | 32858 ft | 436 kts | 119° |
| 2026-05-06 01:01 | 17.33267 | -100.92013 | 32180 ft | 437 kts | 119° |
| 2026-05-06 01:02 | 17.31896 | -100.89212 | 31537 ft | 438 kts | 119° |
| 2026-05-06 01:02 | 17.30512 | -100.86384 | 30883 ft | 433 kts | 119° |
| 2026-05-06 01:02 | 17.29167 | -100.83629 | 30275 ft | 419 kts | 118° |
| 2026-05-06 01:02 | 17.27858 | -100.80943 | 29642 ft | 410 kts | 118° |
| 2026-05-06 01:03 | 17.26579 | -100.78314 | 28920 ft | 401 kts | 118° |
| 2026-05-06 01:03 | 17.25325 | -100.75740 | 28233 ft | 393 kts | 118° |
| 2026-05-06 01:03 | 17.24091 | -100.73216 | 27573 ft | 385 kts | 118° |
| 2026-05-06 01:03 | 17.22879 | -100.70745 | 26939 ft | 378 kts | 118° |
| 2026-05-06 01:04 | 17.21688 | -100.68314 | 26331 ft | 372 kts | 118° |
| 2026-05-06 01:04 | 17.20519 | -100.65929 | 25747 ft | 365 kts | 118° |
| 2026-05-06 01:04 | 17.19369 | -100.63587 | 25185 ft | 359 kts | 118° |
| 2026-05-06 01:04 | 17.18238 | -100.61284 | 24652 ft | 353 kts | 118° |
| 2026-05-06 01:05 | 17.17124 | -100.59013 | 24126 ft | 348 kts | 117° |
| 2026-05-06 01:05 | 17.16029 | -100.56777 | 23620 ft | 343 kts | 117° |
| 2026-05-06 01:05 | 17.14949 | -100.54574 | 23056 ft | 338 kts | 117° |
| 2026-05-06 01:05 | 17.13882 | -100.52398 | 22480 ft | 334 kts | 117° |
| 2026-05-06 01:06 | 17.12831 | -100.50259 | 21920 ft | 330 kts | 117° |
| 2026-05-06 01:06 | 17.11785 | -100.48134 | 21368 ft | 326 kts | 117° |
| 2026-05-06 01:06 | 17.10769 | -100.46069 | 20860 ft | 322 kts | 117° |
| 2026-05-06 01:06 | 17.09751 | -100.43998 | 20348 ft | 319 kts | 117° |
| 2026-05-06 01:07 | 17.08745 | -100.41946 | 19854 ft | 315 kts | 117° |
| 2026-05-06 01:07 | 17.07747 | -100.39915 | 19365 ft | 313 kts | 117° |
| 2026-05-06 01:07 | 17.06755 | -100.37901 | 18895 ft | 311 kts | 117° |
| 2026-05-06 01:07 | 17.05770 | -100.35901 | 18429 ft | 308 kts | 117° |
| 2026-05-06 01:08 | 17.04793 | -100.33915 | 17944 ft | 306 kts | 117° |
| 2026-05-06 01:08 | 17.03821 | -100.31943 | 17418 ft | 304 kts | 117° |
| 2026-05-06 01:08 | 17.02856 | -100.29989 | 16913 ft | 301 kts | 117° |
| 2026-05-06 01:08 | 17.01900 | -100.28050 | 16421 ft | 299 kts | 117° |
| 2026-05-06 01:09 | 17.00953 | -100.26128 | 15937 ft | 297 kts | 116° |
| 2026-05-06 01:09 | 17.00010 | -100.24216 | 15464 ft | 295 kts | 116° |
| 2026-05-06 01:09 | 16.99139 | -100.22285 | 15002 ft | 293 kts | 110° |
| 2026-05-06 01:09 | 16.98488 | -100.20282 | 14549 ft | 291 kts | 107° |
| 2026-05-06 01:10 | 16.97871 | -100.18280 | 14112 ft | 289 kts | 107° |
| 2026-05-06 01:10 | 16.97257 | -100.16287 | 13669 ft | 287 kts | 107° |
| 2026-05-06 01:10 | 16.96644 | -100.14306 | 13178 ft | 286 kts | 107° |
| 2026-05-06 01:10 | 16.96031 | -100.12333 | 12711 ft | 285 kts | 107° |
| 2026-05-06 01:11 | 16.95419 | -100.10369 | 12240 ft | 284 kts | 107° |
| 2026-05-06 01:11 | 16.95016 | -100.09074 | 11943 ft | 282 kts | 107° |
| 2026-05-06 01:11 | 16.94769 | -100.08280 | 11750 ft | 280 kts | 107° |
| 2026-05-06 01:11 | 16.94179 | -100.06385 | 11307 ft | 275 kts | 107° |
| 2026-05-06 01:12 | 16.93583 | -100.04476 | 10875 ft | 271 kts | 107° |
| 2026-05-06 01:12 | 16.93012 | -100.02643 | 10452 ft | 268 kts | 107° |
| 2026-05-06 01:12 | 16.92440 | -100.00799 | 10041 ft | 266 kts | 107° |
| 2026-05-06 01:12 | 16.91867 | -99.98959 | 9634 ft | 267 kts | 108° |
| 2026-05-06 01:13 | 16.91290 | -99.97115 | 9207 ft | 266 kts | 108° |
| 2026-05-06 01:13 | 16.90716 | -99.95280 | 8764 ft | 265 kts | 108° |
| 2026-05-06 01:13 | 16.90144 | -99.93447 | 8331 ft | 265 kts | 108° |
| 2026-05-06 01:13 | 16.89576 | -99.91625 | 7899 ft | 264 kts | 108° |
| 2026-05-06 01:14 | 16.88444 | -99.87988 | 7398 ft | 264 kts | 108° |
| 2026-05-06 01:14 | 16.87875 | -99.86168 | 7177 ft | 263 kts | 108° |
| 2026-05-06 01:14 | 16.87304 | -99.84347 | 6961 ft | 263 kts | 108° |
| 2026-05-06 01:15 | 16.86735 | -99.82530 | 6745 ft | 263 kts | 108° |
| 2026-05-06 01:15 | 16.86172 | -99.80719 | 6529 ft | 262 kts | 108° |
| 2026-05-06 01:15 | 16.85608 | -99.78907 | 6320 ft | 262 kts | 108° |
| 2026-05-06 01:15 | 16.85043 | -99.77100 | 6101 ft | 262 kts | 108° |
| 2026-05-06 01:16 | 16.84476 | -99.75293 | 5876 ft | 262 kts | 108° |
| 2026-05-06 01:16 | 16.83910 | -99.73486 | 5653 ft | 262 kts | 108° |
| 2026-05-06 01:16 | 16.83345 | -99.71681 | 5421 ft | 261 kts | 108° |
| 2026-05-06 01:16 | 16.82780 | -99.69875 | 5209 ft | 261 kts | 108° |
| 2026-05-06 01:17 | 16.82222 | -99.68094 | 4996 ft | 261 kts | 108° |
| 2026-05-06 01:17 | 16.81655 | -99.66290 | 4779 ft | 261 kts | 108° |
| 2026-05-06 01:17 | 16.81088 | -99.64489 | 4564 ft | 261 kts | 108° |
| 2026-05-06 01:17 | 16.80526 | -99.62689 | 4332 ft | 258 kts | 108° |
| 2026-05-06 01:18 | 16.79984 | -99.60957 | 4110 ft | 243 kts | 108° |
| 2026-05-06 01:18 | 16.79474 | -99.59329 | 3884 ft | 229 kts | 109° |
| 2026-05-06 01:18 | 16.78810 | -99.57900 | 3658 ft | 212 kts | 131° |
| 2026-05-06 01:18 | 16.77693 | -99.57025 | 3466 ft | 193 kts | 160° |
| 2026-05-06 01:19 | 16.76450 | -99.56783 | 3280 ft | 173 kts | 186° |
| 2026-05-06 01:19 | 16.75338 | -99.57044 | 3113 ft | 158 kts | 203° |
| 2026-05-06 01:19 | 16.74316 | -99.57393 | 2962 ft | 152 kts | 202° |
| 2026-05-06 01:19 | 16.73321 | -99.57728 | 2794 ft | 149 kts | 203° |
| 2026-05-06 01:20 | 16.72348 | -99.58091 | 2657 ft | 145 kts | 214° |
| 2026-05-06 01:20 | 16.71590 | -99.58745 | 2586 ft | 144 kts | 235° |
| 2026-05-06 01:20 | 16.71152 | -99.59673 | 2498 ft | 145 kts | 256° |
| 2026-05-06 01:20 | 16.71123 | -99.60705 | 2373 ft | 146 kts | 280° |
| 2026-05-06 01:21 | 16.71423 | -99.61716 | 2217 ft | 146 kts | 287° |
| 2026-05-06 01:21 | 16.71738 | -99.62717 | 2044 ft | 144 kts | 286° |
| 2026-05-06 01:21 | 16.72048 | -99.63702 | 1863 ft | 143 kts | 286° |
| 2026-05-06 01:21 | 16.72357 | -99.64687 | 1676 ft | 143 kts | 286° |
| 2026-05-06 01:22 | 16.72665 | -99.65667 | 1499 ft | 142 kts | 286° |
| 2026-05-06 01:22 | 16.72972 | -99.66646 | 1306 ft | 141 kts | 287° |
| 2026-05-06 01:22 | 16.73280 | -99.67627 | 1128 ft | 144 kts | 288° |
| 2026-05-06 01:22 | 16.73594 | -99.68631 | 952 ft | 144 kts | 287° |
| 2026-05-06 01:23 | 16.73905 | -99.69620 | 788 ft | 143 kts | 287° |
| 2026-05-06 01:23 | 16.74211 | -99.70596 | 609 ft | 139 kts | 286° |
| 2026-05-06 01:23 | 16.74514 | -99.71563 | 418 ft | 143 kts | 288° |
| 2026-05-06 01:23 | 16.74820 | -99.72547 | 181 ft | 142 kts | 287° |
| 2026-05-06 01:24 | 16.75125 | -99.73506 | 60 ft | 140 kts | 287° |
| 2026-05-06 01:24 | 16.75408 | -99.74413 | 18 ft | 113 kts | 288° |
| 2026-05-06 01:24 | 16.75598 | -99.75023 | 17 ft | 64 kts | 288° |
| 2026-05-06 01:24 | 16.75667 | -99.75244 | 19 ft | 21 kts | 288° |
| 2026-05-06 01:25 | 16.75712 | -99.75392 | 21 ft | 21 kts | 288° |
| 2026-05-06 01:25 | 16.75757 | -99.75538 | 21 ft | 21 kts | 288° |
| 2026-05-06 01:25 | 16.75809 | -99.75608 | 21 ft | 9 kts | 343° |
| 2026-05-06 01:25 | 16.75850 | -99.75570 | 21 ft | 8 kts | 65° |
| 2026-05-06 01:26 | 16.75876 | -99.75509 | 20 ft | 11 kts | 66° |
| 2026-05-06 01:26 | 16.75914 | -99.75432 | 18 ft | 12 kts | 46° |
| 2026-05-06 01:26 | 16.75997 | -99.75399 | 17 ft | 14 kts | 19° |
| 2026-05-06 01:26 | 16.76080 | -99.75369 | 17 ft | 8 kts | 18° |
| 2026-05-06 01:27 | 16.76082 | -99.75369 | 17 ft | 0 kts | 18° |